21kousinmaru — JD2168 — position and weather

sailwx.info

Track history (hours):
 
Tides and Currents Weather Stations Pressure Air Temp Water Temp Dewpoint Dewpoint Depression Visibility Wind Speed Wind Dir Waves Ship Positions

21kousinmaru

Last reported at 2014-Nov-28 05:33 UTC. Time now 2014-Nov-28 09:39 UTC.
Position N 35°30' E 139°48'.

Length 68 m; draft 4 m.

Type: Tanker. MMSI: 431501835.

Date/timePositionNaut miles runAvg speedWind from/ knotsBaromVisibWave heightAir tempDewpointWater temp
2014-Nov-28 05:33N 35°30' E 139°48'3 0.9
2014-Nov-28 02:23N 35°31' E 139°45'4 1.9
2014-Nov-28 00:16N 35°29' E 139°49'0 0.0
2014-Nov-27 23:19N 35°29' E 139°49'0 0.0
2014-Nov-27 22:33N 35°29' E 139°49'0 0.0
2014-Nov-27 19:27N 35°29' E 139°49'0 0.0
2014-Nov-27 18:33N 35°29' E 139°49'0 0.0
2014-Nov-27 17:31N 35°29' E 139°49'0 0.0
2014-Nov-27 15:18N 35°29' E 139°49'4 5.2
2014-Nov-27 14:33N 35°26' E 139°47'1111.3
2014-Nov-27 13:33N 35°14' E 139°47'241 9.6
2014-Nov-26 12:27N 34°22' E 135°01'1213.3
2014-Nov-26 11:33N 34°29' E 135°13'10 1.6
2014-Nov-26 05:09N 34°32' E 135°25'1 0.2
2014-Nov-25 23:10N 34°32' E 135°25'4 6.3
2014-Nov-25 22:33N 34°33' E 135°20'1 0.4
2014-Nov-25 20:30N 34°33' E 135°19'0 0.0
2014-Nov-25 19:21N 34°33' E 135°19'0 0.0
2014-Nov-25 18:33N 34°33' E 135°19'0 0.0
2014-Nov-25 17:19N 34°33' E 135°19'0 0.0
2014-Nov-25 16:33N 34°33' E 135°19'0 0.0
2014-Nov-25 15:25N 34°33' E 135°19'0 0.0
2014-Nov-25 14:30N 34°33' E 135°19'0 0.0
2014-Nov-25 13:04N 34°33' E 135°19'0 0.0
2014-Nov-25 12:23N 34°33' E 135°19'0 0.0
2014-Nov-25 11:32N 34°33' E 135°19'0 0.0
2014-Nov-25 10:33N 34°33' E 135°19'0 0.0
2014-Nov-25 09:33N 34°33' E 135°19'0 0.0
2014-Nov-25 07:18N 34°33' E 135°19'911.5
2014-Nov-25 06:33N 34°27' E 135°12'1510.8
2014-Nov-25 05:07N 34°15' E 134°59'711.9
2014-Nov-25 04:32N 34°09' E 135°00'24410.1
2014-Nov-24 04:21N 35°13' E 139°46'1012.4
2014-Nov-24 03:33N 35°23' E 139°42'5 0.3
2014-Nov-23 12:33N 35°25' E 139°47'1110.7
2014-Nov-23 11:32N 35°14' E 139°47'24410.1
2014-Nov-22 11:18N 34°14' E 134°59'2112.1
2014-Nov-22 09:33N 34°35' E 135°03'  
Track history (hours):
 
Tides and Currents Weather Stations Pressure Air Temp Water Temp Dewpoint Dewpoint Depression Visibility Wind Speed Wind Dir Waves Ship Positions

21kousinmaru

Last reported at 2014-Nov-28 05:33 UTC. Time now 2014-Nov-28 09:39 UTC.
Position N 35°30' E 139°48'.

Length 68 m; draft 4 m.

Type: Tanker. MMSI: 431501835.

Date/timePositionNaut miles runAvg speedWind from/ knotsBaromVisibWave heightAir tempDewpointWater temp
2014-Nov-28 05:33N 35°30' E 139°48'3 0.9
2014-Nov-28 02:23N 35°31' E 139°45'4 1.9
2014-Nov-28 00:16N 35°29' E 139°49'0 0.0
2014-Nov-27 23:19N 35°29' E 139°49'0 0.0
2014-Nov-27 22:33N 35°29' E 139°49'0 0.0
2014-Nov-27 19:27N 35°29' E 139°49'0 0.0
2014-Nov-27 18:33N 35°29' E 139°49'0 0.0
2014-Nov-27 17:31N 35°29' E 139°49'0 0.0
2014-Nov-27 15:18N 35°29' E 139°49'4 5.2
2014-Nov-27 14:33N 35°26' E 139°47'1111.3
2014-Nov-27 13:33N 35°14' E 139°47'241 9.6
2014-Nov-26 12:27N 34°22' E 135°01'1213.3
2014-Nov-26 11:33N 34°29' E 135°13'10 1.6
2014-Nov-26 05:09N 34°32' E 135°25'1 0.2
2014-Nov-25 23:10N 34°32' E 135°25'4 6.3
2014-Nov-25 22:33N 34°33' E 135°20'1 0.4
2014-Nov-25 20:30N 34°33' E 135°19'0 0.0
2014-Nov-25 19:21N 34°33' E 135°19'0 0.0
2014-Nov-25 18:33N 34°33' E 135°19'0 0.0
2014-Nov-25 17:19N 34°33' E 135°19'0 0.0
2014-Nov-25 16:33N 34°33' E 135°19'0 0.0
2014-Nov-25 15:25N 34°33' E 135°19'0 0.0
2014-Nov-25 14:30N 34°33' E 135°19'0 0.0
2014-Nov-25 13:04N 34°33' E 135°19'0 0.0
2014-Nov-25 12:23N 34°33' E 135°19'0 0.0
2014-Nov-25 11:32N 34°33' E 135°19'0 0.0
2014-Nov-25 10:33N 34°33' E 135°19'0 0.0
2014-Nov-25 09:33N 34°33' E 135°19'0 0.0
2014-Nov-25 07:18N 34°33' E 135°19'911.5
2014-Nov-25 06:33N 34°27' E 135°12'1510.8
2014-Nov-25 05:07N 34°15' E 134°59'711.9
2014-Nov-25 04:32N 34°09' E 135°00'24410.1
2014-Nov-24 04:21N 35°13' E 139°46'1012.4
2014-Nov-24 03:33N 35°23' E 139°42'5 0.3
2014-Nov-23 12:33N 35°25' E 139°47'1110.7
2014-Nov-23 11:32N 35°14' E 139°47'24410.1
2014-Nov-22 11:18N 34°14' E 134°59'2112.1
2014-Nov-22 09:33N 34°35' E 135°03'  

Dump ship's entire track history